Time;durP1;ratioP1;P1;durP2;ratioP2;P2;SDS_P1;SDS_P2;PMS_P1;PMS_P2;Temp;Humidity;BMP_temperature;BMP_pressure;BME280_temperature;BME280_humidity;BME280_pressure;Samples;Min_cycle;Max_cycle;Signal;HPM_P1;HPM_P2
2021/04/19 00:00:10;;;;;;;22.03;14.10;;;;;;;;;;5005721;28;20803;-71
2021/04/19 00:02:37;;;;;;;22.33;12.47;;;;;;;;;;5018841;28;20483;-71
2021/04/19 00:05:06;;;;;;;27.60;13.40;;;;;;;;;;5017487;28;20459;-71
2021/04/19 00:07:33;;;;;;;20.83;13.70;;;;;;;;;;5019920;28;21072;-71
2021/04/19 00:10:01;;;;;;;18.93;12.17;;;;;;;;;;5018522;28;20444;-70
2021/04/19 00:12:28;;;;;;;25.50;14.83;;;;;;;;;;5019608;28;20452;-70
2021/04/19 00:14:55;;;;;;;21.77;15.03;;;;;;;;;;5020083;28;20452;-71
2021/04/19 00:17:24;;;;;;;22.30;13.77;;;;;;;;;;5017018;28;20467;-71
2021/04/19 00:19:52;;;;;;;24.83;14.20;;;;;;;;;;5016246;28;20451;-71
2021/04/19 00:22:20;;;;;;;20.80;12.60;;;;;;;;;;5021275;28;20499;-70
2021/04/19 00:24:47;;;;;;;20.60;13.40;;;;;;;;;;5021135;28;20459;-70
2021/04/19 00:27:14;;;;;;;19.17;13.80;;;;;;;;;;5020419;28;20479;-70
2021/04/19 00:29:42;;;;;;;24.40;14.47;;;;;;;;;;5022751;28;20455;-70
2021/04/19 00:32:09;;;;;;;23.77;14.83;;;;;;;;;;5020820;28;20558;-70
2021/04/19 00:34:36;;;;;;;20.40;14.37;;;;;;;;;;5021299;28;20456;-70
2021/04/19 00:37:04;;;;;;;28.47;14.07;;;;;;;;;;5019882;28;20550;-70
2021/04/19 00:39:32;;;;;;;24.70;15.43;;;;;;;;;;5021559;28;20478;-70
2021/04/19 00:42:00;;;;;;;20.57;14.60;;;;;;;;;;5020505;28;20734;-71
2021/04/19 00:44:27;;;;;;;22.43;13.20;;;;;;;;;;5019850;28;20460;-71
2021/04/19 00:46:54;;;;;;;20.13;13.30;;;;;;;;;;5020079;28;20541;-71
2021/04/19 00:49:24;;;;;;;22.10;13.90;;;;;;;;;;5020340;28;20472;-71
2021/04/19 00:51:51;;;;;;;21.13;14.83;;;;;;;;;;5019963;28;20470;-71
2021/04/19 00:54:19;;;;;;;22.80;14.70;;;;;;;;;;5019611;28;20459;-71
2021/04/19 00:56:48;;;;;;;26.70;13.30;;;;;;;;;;5020069;28;20467;-71
2021/04/19 00:59:15;;;;;;;19.87;13.83;;;;;;;;;;5020203;28;20459;-71
2021/04/19 01:01:42;;;;;;;18.87;14.10;;;;;;;;;;5019488;28;20530;-71
2021/04/19 01:04:10;;;;;;;22.10;13.53;;;;;;;;;;5019795;28;20472;-71
2021/04/19 01:06:37;;;;;;;21.80;13.97;;;;;;;;;;5020438;28;20735;-71
2021/04/19 01:09:05;;;;;;;18.30;12.60;;;;;;;;;;5019160;28;20526;-71
2021/04/19 01:11:33;;;;;;;18.63;12.27;;;;;;;;;;5019109;28;20459;-70
2021/04/19 01:14:01;;;;;;;18.00;12.87;;;;;;;;;;5001797;28;20460;-71
2021/04/19 01:16:28;;;;;;;23.10;12.77;;;;;;;;;;5000540;28;20468;-71
2021/04/19 01:18:56;;;;;;;19.50;13.43;;;;;;;;;;5010476;28;20879;-70
2021/04/19 01:21:24;;;;;;;22.03;13.70;;;;;;;;;;5019983;28;20529;-71
2021/04/19 01:23:52;;;;;;;24.93;14.40;;;;;;;;;;5020285;28;20911;-71
2021/04/19 01:26:19;;;;;;;18.77;12.87;;;;;;;;;;5019937;28;20459;-71
2021/04/19 01:28:46;;;;;;;19.83;13.87;;;;;;;;;;5019351;28;20459;-71
2021/04/19 01:31:13;;;;;;;22.10;13.90;;;;;;;;;;5019157;28;20460;-71
2021/04/19 01:33:41;;;;;;;18.97;13.27;;;;;;;;;;5019025;28;20460;-71
2021/04/19 01:36:09;;;;;;;20.70;15.13;;;;;;;;;;5018640;28;20463;-70
2021/04/19 01:38:37;;;;;;;18.80;12.87;;;;;;;;;;5019633;28;20804;-71
2021/04/19 01:41:04;;;;;;;21.80;13.10;;;;;;;;;;5019655;28;20456;-71
2021/04/19 01:43:32;;;;;;;20.87;13.80;;;;;;;;;;5018978;28;20487;-71
2021/04/19 01:46:02;;;;;;;18.80;13.37;;;;;;;;;;5019571;28;20468;-71
2021/04/19 01:48:30;;;;;;;22.63;13.40;;;;;;;;;;5019604;28;20515;-71
2021/04/19 01:50:57;;;;;;;24.67;13.27;;;;;;;;;;5019318;28;20451;-71
2021/04/19 01:53:24;;;;;;;18.13;12.80;;;;;;;;;;5019743;28;20499;-70
2021/04/19 01:55:53;;;;;;;20.13;13.07;;;;;;;;;;5019180;28;20462;-71
2021/04/19 01:58:21;;;;;;;17.33;12.37;;;;;;;;;;5019363;28;20476;-71
2021/04/19 02:00:51;;;;;;;19.33;13.40;;;;;;;;;;5018605;28;20467;-71
2021/04/19 02:03:23;;;;;;;20.77;14.63;;;;;;;;;;5018823;28;20494;-71
2021/04/19 02:05:53;;;;;;;19.47;13.47;;;;;;;;;;5019527;28;20455;-70
2021/04/19 02:08:24;;;;;;;25.60;16.03;;;;;;;;;;5018627;28;20495;-70
2021/04/19 02:10:54;;;;;;;29.27;14.40;;;;;;;;;;5019063;28;20451;-71
2021/04/19 02:13:28;;;;;;;18.30;13.83;;;;;;;;;;5018575;28;20475;-71
2021/04/19 02:16:01;;;;;;;19.70;12.23;;;;;;;;;;5019062;28;20458;-71
2021/04/19 02:18:31;;;;;;;24.03;12.50;;;;;;;;;;5018102;28;20476;-71
2021/04/19 02:21:01;;;;;;;20.47;13.70;;;;;;;;;;5018567;28;20869;-71
2021/04/19 02:23:29;;;;;;;19.70;13.53;;;;;;;;;;5018353;28;20554;-71
2021/04/19 02:25:58;;;;;;;21.40;13.73;;;;;;;;;;5019006;28;20460;-71
2021/04/19 02:28:29;;;;;;;22.00;13.03;;;;;;;;;;5018631;28;20468;-70
2021/04/19 02:30:58;;;;;;;24.30;14.10;;;;;;;;;;5017735;28;20459;-71
2021/04/19 02:33:27;;;;;;;20.37;13.50;;;;;;;;;;4998908;28;20484;-71
2021/04/19 02:35:55;;;;;;;21.50;13.80;;;;;;;;;;4998890;28;20456;-71
2021/04/19 02:38:24;;;;;;;19.90;14.93;;;;;;;;;;5009014;28;20463;-71
2021/04/19 02:40:53;;;;;;;25.90;13.07;;;;;;;;;;5018154;28;20494;-71
2021/04/19 02:43:21;;;;;;;23.43;13.93;;;;;;;;;;5018875;28;20984;-71
2021/04/19 02:45:51;;;;;;;22.20;12.63;;;;;;;;;;5017871;28;20460;-71
2021/04/19 02:48:20;;;;;;;23.67;13.50;;;;;;;;;;5018093;28;20475;-71
2021/04/19 02:50:47;;;;;;;23.40;14.77;;;;;;;;;;4998562;28;20460;-70
2021/04/19 02:53:14;;;;;;;24.77;13.13;;;;;;;;;;4999321;28;20464;-71
2021/04/19 02:55:41;;;;;;;21.57;15.80;;;;;;;;;;5017847;28;20455;-70
2021/04/19 02:58:10;;;;;;;26.53;14.73;;;;;;;;;;5018061;28;20468;-71
2021/04/19 03:00:39;;;;;;;21.43;13.87;;;;;;;;;;5017446;28;20875;-71
2021/04/19 03:03:09;;;;;;;21.90;14.40;;;;;;;;;;5018733;28;20499;-71
2021/04/19 03:05:38;;;;;;;22.57;13.40;;;;;;;;;;5017736;28;20503;-71
2021/04/19 03:08:08;;;;;;;17.13;13.87;;;;;;;;;;5017445;28;20474;-70
2021/04/19 03:10:38;;;;;;;24.00;13.60;;;;;;;;;;5017555;28;20463;-70
2021/04/19 03:13:05;;;;;;;20.50;13.57;;;;;;;;;;5017710;28;20468;-71
2021/04/19 03:15:33;;;;;;;25.33;14.10;;;;;;;;;;5017409;28;20485;-71
2021/04/19 03:18:03;;;;;;;27.00;14.20;;;;;;;;;;5017569;28;20463;-69
2021/04/19 03:20:44;;;;;;;25.53;15.10;;;;;;;;;;5013640;28;20455;-71
2021/04/19 03:23:11;;;;;;;24.87;15.77;;;;;;;;;;5017233;28;20809;-71
2021/04/19 03:25:39;;;;;;;29.50;14.30;;;;;;;;;;5017628;28;20482;-70
2021/04/19 03:28:08;;;;;;;24.00;15.27;;;;;;;;;;5017103;28;20452;-70
2021/04/19 03:30:36;;;;;;;22.17;14.37;;;;;;;;;;5017618;28;20827;-70
2021/04/19 03:33:04;;;;;;;23.10;14.00;;;;;;;;;;5017596;28;20495;-71
2021/04/19 03:35:35;;;;;;;23.17;14.60;;;;;;;;;;5017440;28;20537;-69
2021/04/19 03:38:04;;;;;;;21.77;14.33;;;;;;;;;;5001365;28;20746;-69
2021/04/19 03:40:35;;;;;;;20.20;13.93;;;;;;;;;;5017295;28;20469;-71
2021/04/19 03:43:05;;;;;;;22.90;14.83;;;;;;;;;;5013868;28;20545;-71
2021/04/19 03:45:34;;;;;;;20.83;14.27;;;;;;;;;;4997899;28;20572;-71
2021/04/19 03:48:03;;;;;;;21.67;13.70;;;;;;;;;;5005289;28;20474;-71
2021/04/19 03:50:33;;;;;;;22.60;13.10;;;;;;;;;;5016765;28;20489;-71
2021/04/19 03:53:03;;;;;;;23.70;14.67;;;;;;;;;;5017136;28;20475;-71
2021/04/19 03:55:30;;;;;;;21.43;14.13;;;;;;;;;;5016599;28;20452;-71
2021/04/19 03:57:59;;;;;;;26.13;14.97;;;;;;;;;;5017409;28;20475;-71
2021/04/19 04:00:30;;;;;;;22.70;15.93;;;;;;;;;;5008038;28;20456;-71
2021/04/19 04:02:57;;;;;;;20.83;13.40;;;;;;;;;;4997893;28;20777;-71
2021/04/19 04:05:24;;;;;;;20.90;13.27;;;;;;;;;;4999161;28;20467;-71
2021/04/19 04:07:56;;;;;;;24.13;15.10;;;;;;;;;;5016884;28;20524;-71
2021/04/19 04:10:25;;;;;;;27.20;14.80;;;;;;;;;;5016884;28;20464;-70
2021/04/19 04:12:52;;;;;;;27.57;14.67;;;;;;;;;;5017196;28;20766;-71
2021/04/19 04:15:19;;;;;;;28.00;17.03;;;;;;;;;;5016632;28;20451;-71
2021/04/19 04:17:47;;;;;;;25.10;15.67;;;;;;;;;;5015570;28;20555;-70
2021/04/19 04:20:15;;;;;;;26.47;15.57;;;;;;;;;;5015714;28;20471;-70
2021/04/19 04:22:42;;;;;;;22.03;14.80;;;;;;;;;;5016778;28;20488;-70
2021/04/19 04:25:10;;;;;;;24.83;15.50;;;;;;;;;;5016904;28;20464;-71
2021/04/19 04:27:39;;;;;;;23.70;15.53;;;;;;;;;;5016714;28;20455;-70
2021/04/19 04:30:06;;;;;;;27.87;14.83;;;;;;;;;;5016676;28;20909;-71
2021/04/19 04:32:34;;;;;;;17.30;13.43;;;;;;;;;;5016160;28;20455;-70
2021/04/19 04:35:01;;;;;;;26.17;16.70;;;;;;;;;;5016413;28;20471;-70
2021/04/19 04:37:28;;;;;;;25.17;17.60;;;;;;;;;;5016687;28;20526;-70
2021/04/19 04:39:56;;;;;;;24.53;15.17;;;;;;;;;;5016171;28;20460;-71
2021/04/19 04:42:24;;;;;;;31.03;17.57;;;;;;;;;;5016669;28;20517;-70
2021/04/19 04:44:53;;;;;;;33.20;17.10;;;;;;;;;;5016987;28;20483;-70
2021/04/19 04:47:23;;;;;;;31.77;16.47;;;;;;;;;;5016430;28;20710;-70
2021/04/19 04:49:52;;;;;;;28.63;18.43;;;;;;;;;;5016224;28;20467;-70
2021/04/19 04:52:20;;;;;;;28.47;19.13;;;;;;;;;;5016490;28;20460;-71
2021/04/19 04:54:49;;;;;;;25.13;15.70;;;;;;;;;;5019902;28;20529;-71
2021/04/19 04:57:19;;;;;;;28.43;16.97;;;;;;;;;;5019929;28;20738;-71
2021/04/19 04:59:46;;;;;;;22.37;14.20;;;;;;;;;;5019236;28;20464;-71
2021/04/19 05:02:15;;;;;;;24.60;15.90;;;;;;;;;;5015334;28;20488;-71
2021/04/19 05:04:42;;;;;;;24.40;16.00;;;;;;;;;;4999828;28;20475;-70
2021/04/19 05:07:12;;;;;;;24.73;16.63;;;;;;;;;;4998618;28;20464;-71
2021/04/19 05:09:40;;;;;;;25.53;15.77;;;;;;;;;;4998500;28;20484;-70
2021/04/19 05:12:08;;;;;;;28.90;16.47;;;;;;;;;;4998954;28;20916;-71
2021/04/19 05:14:37;;;;;;;23.90;15.40;;;;;;;;;;4997787;28;20490;-71
2021/04/19 05:17:05;;;;;;;26.57;15.00;;;;;;;;;;4998487;28;20742;-71
2021/04/19 05:19:33;;;;;;;26.80;16.40;;;;;;;;;;4997614;28;20811;-71
2021/04/19 05:22:01;;;;;;;25.87;16.77;;;;;;;;;;4996874;28;20470;-71
2021/04/19 05:24:28;;;;;;;26.43;16.87;;;;;;;;;;4997139;28;20488;-71
2021/04/19 05:26:59;;;;;;;26.70;16.20;;;;;;;;;;4998059;28;20457;-71
2021/04/19 05:29:26;;;;;;;28.20;15.60;;;;;;;;;;4998533;28;21192;-71
2021/04/19 05:31:54;;;;;;;25.53;15.70;;;;;;;;;;4996416;28;20457;-71
2021/04/19 05:34:21;;;;;;;25.53;15.20;;;;;;;;;;4996958;28;20476;-70
2021/04/19 05:36:50;;;;;;;22.63;16.17;;;;;;;;;;4998217;28;20460;-71
2021/04/19 05:39:18;;;;;;;25.07;15.17;;;;;;;;;;4996885;28;20460;-70
2021/04/19 05:41:45;;;;;;;28.80;16.70;;;;;;;;;;4996458;28;20457;-69
2021/04/19 05:44:12;;;;;;;29.53;17.10;;;;;;;;;;4997195;28;20492;-71
2021/04/19 05:46:40;;;;;;;27.07;16.73;;;;;;;;;;4998499;28;20460;-71
2021/04/19 05:49:07;;;;;;;25.80;15.13;;;;;;;;;;4998023;28;20788;-71
2021/04/19 05:51:37;;;;;;;23.57;15.70;;;;;;;;;;4997584;28;20923;-71
2021/04/19 05:54:05;;;;;;;24.00;14.73;;;;;;;;;;4998079;28;20468;-71
2021/04/19 05:56:41;;;;;;;25.60;15.73;;;;;;;;;;4997154;28;20453;-71
2021/04/19 05:59:11;;;;;;;24.90;16.00;;;;;;;;;;5003558;28;20523;-71
2021/04/19 06:01:43;;;;;;;25.57;16.00;;;;;;;;;;5016262;28;20669;-71
2021/04/19 06:04:12;;;;;;;25.13;15.43;;;;;;;;;;5016027;28;20487;-71
2021/04/19 06:06:44;;;;;;;26.13;15.93;;;;;;;;;;5016674;28;20464;-71
2021/04/19 06:09:15;;;;;;;24.37;16.17;;;;;;;;;;5017361;28;21051;-71
2021/04/19 06:11:44;;;;;;;32.43;17.77;;;;;;;;;;5017672;28;20495;-71
2021/04/19 06:14:14;;;;;;;31.73;16.70;;;;;;;;;;5016534;28;20539;-72
2021/04/19 06:16:44;;;;;;;25.17;15.23;;;;;;;;;;5017103;28;20467;-70
2021/04/19 06:19:14;;;;;;;31.03;17.63;;;;;;;;;;5016777;28;20795;-70
2021/04/19 06:21:44;;;;;;;21.73;13.83;;;;;;;;;;5015594;28;20452;-70
2021/04/19 06:24:20;;;;;;;21.40;14.97;;;;;;;;;;5016236;28;20915;-70
2021/04/19 06:26:49;;;;;;;25.93;15.00;;;;;;;;;;5015565;28;20451;-71
2021/04/19 06:29:35;;;;;;;23.93;14.53;;;;;;;;;;5013526;28;20440;-71
2021/04/19 06:32:03;;;;;;;20.57;14.30;;;;;;;;;;5018060;28;20452;-70
2021/04/19 06:34:31;;;;;;;17.20;12.20;;;;;;;;;;5016520;28;20464;-71
2021/04/19 06:37:00;;;;;;;19.93;14.00;;;;;;;;;;5018115;28;20463;-71
2021/04/19 06:39:28;;;;;;;20.87;13.27;;;;;;;;;;5016891;28;20474;-70
2021/04/19 06:41:59;;;;;;;20.47;14.70;;;;;;;;;;5017199;28;20471;-71
2021/04/19 06:44:26;;;;;;;19.77;14.20;;;;;;;;;;5017756;28;20560;-71
2021/04/19 06:47:00;;;;;;;20.33;12.83;;;;;;;;;;5016751;28;20554;-70
2021/04/19 06:49:32;;;;;;;19.77;13.20;;;;;;;;;;5016780;28;20553;-71
2021/04/19 06:52:01;;;;;;;19.60;13.33;;;;;;;;;;5016057;28;20575;-71
2021/04/19 06:54:30;;;;;;;20.00;12.77;;;;;;;;;;5017045;28;20471;-71
2021/04/19 06:57:00;;;;;;;19.17;13.50;;;;;;;;;;5016899;28;20499;-71
2021/04/19 06:59:30;;;;;;;21.30;12.70;;;;;;;;;;5015334;28;20470;-70
2021/04/19 07:01:59;;;;;;;18.20;12.30;;;;;;;;;;5015070;28;20458;-71
2021/04/19 07:04:28;;;;;;;18.10;12.57;;;;;;;;;;5016117;28;21076;-70
2021/04/19 07:06:58;;;;;;;16.20;11.00;;;;;;;;;;5016085;28;20864;-70
2021/04/19 07:09:26;;;;;;;15.70;12.07;;;;;;;;;;5016430;28;20585;-70
2021/04/19 07:11:55;;;;;;;15.67;11.70;;;;;;;;;;5015842;28;20714;-69
2021/04/19 07:14:23;;;;;;;17.80;12.97;;;;;;;;;;5014840;28;20478;-70
2021/04/19 07:16:51;;;;;;;21.97;13.30;;;;;;;;;;5016296;28;20460;-70
2021/04/19 07:19:19;;;;;;;13.37;11.03;;;;;;;;;;5015416;28;20463;-70
2021/04/19 07:21:46;;;;;;;14.50;11.47;;;;;;;;;;5015657;28;20460;-71
2021/04/19 07:24:14;;;;;;;16.20;11.47;;;;;;;;;;5016224;28;20515;-71
2021/04/19 07:26:42;;;;;;;19.20;12.47;;;;;;;;;;5015553;28;20450;-71
2021/04/19 07:29:11;;;;;;;17.93;12.87;;;;;;;;;;5016477;28;20938;-71
2021/04/19 07:31:48;;;;;;;18.80;13.43;;;;;;;;;;5016513;28;20459;-71
2021/04/19 07:34:18;;;;;;;14.93;11.20;;;;;;;;;;5015867;28;20856;-70
2021/04/19 07:36:50;;;;;;;16.43;11.97;;;;;;;;;;5015762;28;20475;-70
2021/04/19 07:39:37;;;;;;;17.57;13.40;;;;;;;;;;5016381;28;20551;-70
2021/04/19 07:42:04;;;;;;;15.60;11.13;;;;;;;;;;5015700;28;20570;-70
2021/04/19 07:44:49;;;;;;;14.60;11.50;;;;;;;;;;5015499;28;20487;-70
2021/04/19 07:47:22;;;;;;;21.17;11.50;;;;;;;;;;5015303;28;20471;-70
2021/04/19 07:50:04;;;;;;;15.00;10.20;;;;;;;;;;5013099;28;20459;-70
2021/04/19 07:52:35;;;;;;;18.00;13.27;;;;;;;;;;5005006;28;20574;-70
2021/04/19 07:55:10;;;;;;;16.93;11.20;;;;;;;;;;4997694;28;21151;-70
2021/04/19 07:57:39;;;;;;;18.20;13.07;;;;;;;;;;4995339;28;20530;-71
2021/04/19 08:00:11;;;;;;;15.50;11.87;;;;;;;;;;5011230;28;20538;-71
2021/04/19 08:02:41;;;;;;;13.30;10.60;;;;;;;;;;5017472;28;21153;-71
2021/04/19 08:05:11;;;;;;;15.00;11.60;;;;;;;;;;5016354;28;20794;-71
2021/04/19 08:07:41;;;;;;;17.67;12.00;;;;;;;;;;5017788;28;20479;-71
2021/04/19 08:10:09;;;;;;;16.07;10.73;;;;;;;;;;5013689;28;20542;-70
2021/04/19 08:12:39;;;;;;;16.60;12.10;;;;;;;;;;5015622;28;20570;-70
2021/04/19 08:15:08;;;;;;;16.70;11.17;;;;;;;;;;5015802;28;20455;-70
2021/04/19 08:17:35;;;;;;;17.40;12.17;;;;;;;;;;5015122;28;20772;-70
2021/04/19 08:20:07;;;;;;;17.67;14.90;;;;;;;;;;5015828;28;20463;-70
2021/04/19 08:22:35;;;;;;;16.90;12.20;;;;;;;;;;5014698;28;20471;-70
2021/04/19 08:25:10;;;;;;;14.23;11.80;;;;;;;;;;5014640;28;20459;-70
2021/04/19 08:27:37;;;;;;;18.50;13.20;;;;;;;;;;5015811;28;20470;-70
2021/04/19 08:30:06;;;;;;;15.33;12.17;;;;;;;;;;5019698;28;20526;-69
2021/04/19 08:32:33;;;;;;;15.83;11.70;;;;;;;;;;5019032;28;20455;-70
2021/04/19 08:35:01;;;;;;;16.97;12.20;;;;;;;;;;5019462;28;20455;-71
2021/04/19 08:37:30;;;;;;;18.43;11.10;;;;;;;;;;5019729;28;20516;-71
2021/04/19 08:40:00;;;;;;;16.07;11.90;;;;;;;;;;5020917;28;20889;-70
2021/04/19 08:42:28;;;;;;;19.57;13.10;;;;;;;;;;5020559;28;20460;-71
2021/04/19 08:44:57;;;;;;;15.87;12.67;;;;;;;;;;5019288;28;20474;-70
2021/04/19 08:47:27;;;;;;;19.00;12.60;;;;;;;;;;5018567;28;20497;-70
2021/04/19 08:49:55;;;;;;;19.00;12.20;;;;;;;;;;5019084;28;20907;-70
2021/04/19 08:52:23;;;;;;;15.43;12.33;;;;;;;;;;5017032;28;20767;-70
2021/04/19 08:54:52;;;;;;;16.10;11.73;;;;;;;;;;5019917;28;20451;-70
2021/04/19 08:57:23;;;;;;;16.40;12.87;;;;;;;;;;5018214;28;20508;-69
2021/04/19 08:59:54;;;;;;;13.53;10.83;;;;;;;;;;5016814;28;20749;-69
2021/04/19 09:02:23;;;;;;;14.87;10.50;;;;;;;;;;5014067;28;20483;-70
2021/04/19 09:05:11;;;;;;;15.80;10.90;;;;;;;;;;5015436;28;20502;-71
2021/04/19 09:07:39;;;;;;;14.33;10.80;;;;;;;;;;5016767;28;20460;-69
2021/04/19 09:10:12;;;;;;;14.63;11.17;;;;;;;;;;5018841;28;20824;-69
2021/04/19 09:12:40;;;;;;;16.83;12.13;;;;;;;;;;5018324;28;20487;-70
2021/04/19 09:15:29;;;;;;;14.50;12.00;;;;;;;;;;5016478;28;20475;-70
2021/04/19 09:18:05;;;;;;;13.03;11.30;;;;;;;;;;5016229;28;20560;-72
2021/04/19 09:20:47;;;;;;;15.93;11.87;;;;;;;;;;5016942;28;20873;-69
2021/04/19 09:23:22;;;;;;;18.20;13.43;;;;;;;;;;5018629;28;20495;-70
2021/04/19 09:25:51;;;;;;;15.20;12.00;;;;;;;;;;5018031;28;20513;-71
2021/04/19 09:28:42;;;;;;;15.13;10.60;;;;;;;;;;5019608;28;20451;-70
2021/04/19 09:31:10;;;;;;;15.60;11.57;;;;;;;;;;5003277;28;20474;-70
2021/04/19 09:33:39;;;;;;;14.37;11.47;;;;;;;;;;5017788;28;20452;-69
2021/04/19 09:36:07;;;;;;;14.63;10.73;;;;;;;;;;5016013;28;20487;-71
2021/04/19 09:38:51;;;;;;;16.93;12.23;;;;;;;;;;5017223;28;20852;-70
2021/04/19 09:41:48;;;;;;;14.40;10.87;;;;;;;;;;5019254;28;20456;-71
2021/04/19 09:44:28;;;;;;;17.80;11.57;;;;;;;;;;5018282;28;20553;-70
2021/04/19 09:46:56;;;;;;;15.83;11.50;;;;;;;;;;5017806;28;20459;-70
2021/04/19 09:49:24;;;;;;;16.53;12.10;;;;;;;;;;5018868;28;20519;-69
2021/04/19 09:51:52;;;;;;;17.90;12.37;;;;;;;;;;5017276;28;20463;-69
2021/04/19 09:54:19;;;;;;;18.10;13.20;;;;;;;;;;5011696;28;20456;-69
2021/04/19 09:56:50;;;;;;;17.57;12.40;;;;;;;;;;5018312;28;20456;-70
2021/04/19 09:59:19;;;;;;;16.47;11.40;;;;;;;;;;5018100;28;20443;-69
2021/04/19 10:01:47;;;;;;;15.63;11.97;;;;;;;;;;5018572;28;20526;-71
2021/04/19 10:04:15;;;;;;;15.43;11.90;;;;;;;;;;5017592;28;20541;-71
2021/04/19 10:06:46;;;;;;;19.73;13.07;;;;;;;;;;5017923;28;20468;-71
2021/04/19 10:09:14;;;;;;;16.00;13.83;;;;;;;;;;5019074;28;20753;-72
2021/04/19 10:11:43;;;;;;;17.60;13.03;;;;;;;;;;5017191;28;20471;-72
2021/04/19 10:14:13;;;;;;;14.13;10.97;;;;;;;;;;5018347;28;20503;-71
2021/04/19 10:16:44;;;;;;;14.07;12.27;;;;;;;;;;5017855;28;20555;-72
2021/04/19 10:19:11;;;;;;;13.50;11.00;;;;;;;;;;5017343;28;20546;-69
2021/04/19 10:21:39;;;;;;;15.50;11.50;;;;;;;;;;5016761;28;20630;-70
2021/04/19 10:24:14;;;;;;;13.73;11.23;;;;;;;;;;5017200;28;20487;-71
2021/04/19 10:26:42;;;;;;;16.50;12.30;;;;;;;;;;5016930;28;20459;-71
2021/04/19 10:29:15;;;;;;;14.93;12.17;;;;;;;;;;5017426;28;20887;-71
2021/04/19 10:31:52;;;;;;;15.60;12.27;;;;;;;;;;5015189;28;20479;-71
2021/04/19 10:34:21;;;;;;;16.13;13.33;;;;;;;;;;5017988;28;20452;-71
2021/04/19 10:36:51;;;;;;;15.13;12.73;;;;;;;;;;5016740;28;20519;-70
2021/04/19 10:39:20;;;;;;;16.00;12.40;;;;;;;;;;5017429;28;20532;-70
2021/04/19 10:41:49;;;;;;;16.83;12.90;;;;;;;;;;5018204;28;20468;-70
2021/04/19 10:44:25;;;;;;;17.27;13.50;;;;;;;;;;5018361;28;20495;-70
2021/04/19 10:46:54;;;;;;;15.77;12.67;;;;;;;;;;5023518;28;20500;-68
2021/04/19 10:49:23;;;;;;;18.67;12.93;;;;;;;;;;5015722;28;20487;-71
2021/04/19 10:51:52;;;;;;;12.17;10.70;;;;;;;;;;5016410;28;20895;-70
2021/04/19 10:54:19;;;;;;;13.67;11.03;;;;;;;;;;5009002;28;20975;-71
2021/04/19 10:56:50;;;;;;;18.37;13.53;;;;;;;;;;5016806;28;21129;-72
2021/04/19 10:59:22;;;;;;;16.20;12.50;;;;;;;;;;5020162;28;20476;-70
2021/04/19 11:01:57;;;;;;;16.83;12.60;;;;;;;;;;5017179;28;20582;-72
2021/04/19 11:04:25;;;;;;;16.63;12.10;;;;;;;;;;5011811;28;20498;-71
2021/04/19 11:06:53;;;;;;;16.50;12.40;;;;;;;;;;5016952;28;20456;-71
2021/04/19 11:09:26;;;;;;;14.53;12.87;;;;;;;;;;5017321;28;20463;-70
2021/04/19 11:11:54;;;;;;;15.10;12.57;;;;;;;;;;5016298;28;21049;-70
2021/04/19 11:14:25;;;;;;;13.93;12.23;;;;;;;;;;5017221;28;20464;-71
2021/04/19 11:16:54;;;;;;;15.17;13.20;;;;;;;;;;5013236;28;20744;-71
2021/04/19 11:19:32;;;;;;;15.67;12.27;;;;;;;;;;5017269;28;20491;-70
2021/04/19 11:22:01;;;;;;;17.90;13.43;;;;;;;;;;5016510;28;20471;-72
2021/04/19 11:24:38;;;;;;;15.53;11.73;;;;;;;;;;5015555;28;20534;-69
2021/04/19 11:27:06;;;;;;;14.47;12.00;;;;;;;;;;5010303;28;20494;-71
2021/04/19 11:29:42;;;;;;;17.90;13.20;;;;;;;;;;5016431;28;20451;-71
2021/04/19 11:32:27;;;;;;;15.90;12.53;;;;;;;;;;5001889;28;20762;-70
2021/04/19 11:34:54;;;;;;;16.80;12.90;;;;;;;;;;5006179;28;20892;-73
2021/04/19 11:37:35;;;;;;;16.93;14.13;;;;;;;;;;5015537;28;20541;-71
2021/04/19 11:40:04;;;;;;;14.27;11.27;;;;;;;;;;5015297;28;20712;-71
2021/04/19 11:42:33;;;;;;;15.33;11.80;;;;;;;;;;5016309;28;20534;-71
2021/04/19 11:45:05;;;;;;;14.73;11.80;;;;;;;;;;5013223;28;20778;-72
2021/04/19 11:47:33;;;;;;;15.00;11.83;;;;;;;;;;5017857;28;20541;-71
2021/04/19 11:50:01;;;;;;;16.80;12.40;;;;;;;;;;5016591;28;20452;-72
2021/04/19 11:52:31;;;;;;;16.93;12.10;;;;;;;;;;5015044;28;20495;-71
2021/04/19 11:54:58;;;;;;;17.57;12.83;;;;;;;;;;5016431;28;20471;-71
2021/04/19 11:57:26;;;;;;;15.00;11.50;;;;;;;;;;5016434;28;21027;-72
2021/04/19 11:59:53;;;;;;;16.00;12.50;;;;;;;;;;5015687;28;20463;-72
2021/04/19 12:02:27;;;;;;;14.17;11.47;;;;;;;;;;5014881;28;20470;-73
2021/04/19 12:04:54;;;;;;;16.97;13.47;;;;;;;;;;5018323;28;20479;-73
2021/04/19 12:07:22;;;;;;;15.17;12.30;;;;;;;;;;5019896;28;20558;-71
2021/04/19 12:09:49;;;;;;;17.20;13.73;;;;;;;;;;5019799;28;20537;-70
2021/04/19 12:12:17;;;;;;;16.37;12.97;;;;;;;;;;5019487;28;20870;-70
2021/04/19 12:14:47;;;;;;;17.63;12.03;;;;;;;;;;5019245;28;20454;-72
2021/04/19 12:17:16;;;;;;;14.53;12.27;;;;;;;;;;5017766;28;20467;-71
2021/04/19 12:19:44;;;;;;;14.13;11.07;;;;;;;;;;5006745;28;20940;-71
2021/04/19 12:22:13;;;;;;;13.77;11.03;;;;;;;;;;5011670;28;20464;-71
2021/04/19 12:24:41;;;;;;;15.90;12.87;;;;;;;;;;5020952;28;20483;-71
2021/04/19 12:27:11;;;;;;;14.90;11.93;;;;;;;;;;5020497;28;20790;-71
2021/04/19 12:29:38;;;;;;;14.43;11.97;;;;;;;;;;5019532;28;20533;-72
2021/04/19 12:32:07;;;;;;;14.10;10.77;;;;;;;;;;5021250;28;20478;-71
2021/04/19 12:34:34;;;;;;;12.80;10.67;;;;;;;;;;5019378;28;20450;-72
2021/04/19 12:37:04;;;;;;;14.80;11.40;;;;;;;;;;5021524;28;20555;-71
2021/04/19 12:39:33;;;;;;;17.23;12.30;;;;;;;;;;5021129;28;20517;-72
2021/04/19 12:42:00;;;;;;;14.50;10.70;;;;;;;;;;5019851;28;20529;-71
2021/04/19 12:44:28;;;;;;;17.00;12.10;;;;;;;;;;5020031;28;20566;-72
2021/04/19 12:46:56;;;;;;;12.87;10.73;;;;;;;;;;5019264;28;20510;-73
2021/04/19 12:49:24;;;;;;;14.07;11.03;;;;;;;;;;5020246;28;20471;-71
2021/04/19 12:51:52;;;;;;;12.10;9.80;;;;;;;;;;5020519;28;20463;-73
2021/04/19 12:54:21;;;;;;;12.50;10.90;;;;;;;;;;5018481;28;20494;-72
2021/04/19 12:56:52;;;;;;;11.13;8.93;;;;;;;;;;5020062;28;20459;-73
2021/04/19 12:59:20;;;;;;;10.90;8.80;;;;;;;;;;5018435;28;20464;-72
2021/04/19 13:01:47;;;;;;;11.90;10.37;;;;;;;;;;5019880;28;20451;-72
2021/04/19 13:04:16;;;;;;;11.20;9.27;;;;;;;;;;5020347;28;20495;-73
2021/04/19 13:06:44;;;;;;;11.47;9.47;;;;;;;;;;5017142;28;20794;-72
2021/04/19 13:09:11;;;;;;;10.40;9.30;;;;;;;;;;5018181;28;20460;-72
2021/04/19 13:11:43;;;;;;;11.27;9.60;;;;;;;;;;5017886;28;20926;-73
2021/04/19 13:14:13;;;;;;;10.30;8.50;;;;;;;;;;5019686;28;20456;-73
2021/04/19 13:16:40;;;;;;;11.20;9.00;;;;;;;;;;5019423;28;20467;-72
2021/04/19 13:19:08;;;;;;;9.57;8.37;;;;;;;;;;5020359;28;20475;-73
2021/04/19 13:21:35;;;;;;;11.50;7.63;;;;;;;;;;5020174;28;20536;-74
2021/04/19 13:24:08;;;;;;;10.17;8.00;;;;;;;;;;5022668;28;20497;-72
2021/04/19 13:26:36;;;;;;;9.80;7.53;;;;;;;;;;5006505;28;20479;-72
2021/04/19 13:29:05;;;;;;;8.50;6.60;;;;;;;;;;5022651;28;20562;-72
2021/04/19 13:31:48;;;;;;;8.27;7.00;;;;;;;;;;5025753;28;20528;-71
2021/04/19 13:34:22;;;;;;;9.47;7.40;;;;;;;;;;5023643;28;20463;-72
2021/04/19 13:36:54;;;;;;;9.83;7.10;;;;;;;;;;5024668;28;20911;-71
2021/04/19 13:39:30;;;;;;;9.40;7.57;;;;;;;;;;5021243;28;20483;-71
2021/04/19 13:42:01;;;;;;;10.07;7.67;;;;;;;;;;5023589;28;20485;-72
2021/04/19 13:44:42;;;;;;;8.73;7.50;;;;;;;;;;5023186;28;20822;-72
2021/04/19 13:47:19;;;;;;;7.67;6.80;;;;;;;;;;5022278;28;20460;-73
2021/04/19 13:49:47;;;;;;;9.93;7.03;;;;;;;;;;5024229;28;20915;-71
2021/04/19 13:52:17;;;;;;;20.27;11.00;;;;;;;;;;5024317;28;20474;-72
2021/04/19 13:54:46;;;;;;;12.77;8.40;;;;;;;;;;5025512;28;20475;-71
2021/04/19 13:57:18;;;;;;;9.33;6.90;;;;;;;;;;5020678;28;20511;-72
2021/04/19 13:59:50;;;;;;;10.03;8.00;;;;;;;;;;5022257;28;20867;-72
2021/04/19 14:02:26;;;;;;;9.73;8.73;;;;;;;;;;5019492;28;20502;-71
2021/04/19 14:05:08;;;;;;;8.23;6.60;;;;;;;;;;5021922;28;20479;-72
2021/04/19 14:07:41;;;;;;;9.23;8.07;;;;;;;;;;5022194;28;20495;-70
2021/04/19 14:10:10;;;;;;;9.37;7.97;;;;;;;;;;5008775;28;20618;-70
2021/04/19 14:12:45;;;;;;;11.50;8.70;;;;;;;;;;5023845;28;20880;-71
2021/04/19 14:15:15;;;;;;;9.03;8.03;;;;;;;;;;5025320;28;20451;-72
2021/04/19 14:17:52;;;;;;;12.83;9.10;;;;;;;;;;5021907;28;20479;-72
2021/04/19 14:20:28;;;;;;;12.47;8.67;;;;;;;;;;5006757;28;20473;-71
2021/04/19 14:23:05;;;;;;;10.63;8.90;;;;;;;;;;5022601;28;20714;-72
2021/04/19 14:26:03;;;;;;;10.07;7.60;;;;;;;;;;5018610;28;20455;-71
2021/04/19 14:28:45;;;;;;;12.10;9.53;;;;;;;;;;5019548;28;20468;-71
2021/04/19 14:31:15;;;;;;;10.10;8.43;;;;;;;;;;5024318;28;20452;-71
2021/04/19 14:33:56;;;;;;;10.20;9.20;;;;;;;;;;5022773;28;20537;-72